Time;durP1;ratioP1;P1;durP2;ratioP2;P2;SDS_P1;SDS_P2;PMS_P1;PMS_P2;Temp;Humidity;BMP_temperature;BMP_pressure;BME280_temperature;BME280_humidity;BME280_pressure;Samples;Min_cycle;Max_cycle;Signal;HPM_P1;HPM_P2
2024/04/11 00:00:09;;;;;;;9.40;2.33;;;13.50;69.40;;;;;;5436173;26;20002;-83
2024/04/11 00:02:36;;;;;;;9.98;3.15;;;13.50;69.80;;;;;;5433052;26;20093;-82
2024/04/11 00:05:03;;;;;;;10.15;3.00;;;13.50;69.80;;;;;;5421575;26;20006;-82
2024/04/11 00:07:29;;;;;;;11.55;3.17;;;13.50;69.60;;;;;;5427263;26;19998;-82
2024/04/11 00:09:55;;;;;;;10.20;2.88;;;13.50;69.50;;;;;;5405960;26;20437;-84
2024/04/11 00:12:20;;;;;;;11.45;2.95;;;13.60;69.50;;;;;;5434625;26;20939;-82
2024/04/11 00:14:46;;;;;;;10.32;2.88;;;13.60;69.60;;;;;;5425806;26;20006;-81
2024/04/11 00:17:12;;;;;;;13.02;3.05;;;13.60;69.70;;;;;;5429705;26;20006;-85
2024/04/11 00:19:38;;;;;;;9.48;2.60;;;13.60;69.80;;;;;;5435745;26;20043;-82
2024/04/11 00:22:05;;;;;;;10.82;3.20;;;13.60;69.80;;;;;;5434184;26;19995;-83
2024/04/11 00:24:31;;;;;;;11.13;3.30;;;13.60;69.70;;;;;;5429754;26;19995;-83
2024/04/11 00:26:57;;;;;;;10.25;2.72;;;13.60;69.80;;;;;;5431272;26;20339;-83
2024/04/11 00:29:23;;;;;;;9.50;2.85;;;13.60;69.90;;;;;;5424627;26;20014;-83
2024/04/11 00:31:48;;;;;;;11.48;3.03;;;13.50;69.80;;;;;;5429338;26;20346;-83
2024/04/11 00:34:15;;;;;;;10.73;2.55;;;13.50;70.20;;;;;;5431504;26;19999;-83
2024/04/11 00:36:42;;;;;;;8.20;2.40;;;13.60;70.10;;;;;;5432373;26;19999;-82
2024/04/11 00:39:09;;;;;;;10.63;2.85;;;13.50;70.10;;;;;;5430586;26;20479;-82
2024/04/11 00:41:36;;;;;;;6.68;2.30;;;13.50;70.20;;;;;;5384759;26;19999;-83
2024/04/11 00:44:02;;;;;;;11.60;2.90;;;13.50;70.10;;;;;;5433789;26;20091;-83
2024/04/11 00:46:29;;;;;;;10.98;3.13;;;13.60;70.40;;;;;;5434730;26;20087;-83
2024/04/11 00:48:56;;;;;;;11.55;2.67;;;13.60;70.40;;;;;;5421940;26;20344;-83
2024/04/11 00:51:22;;;;;;;9.68;2.80;;;13.50;70.60;;;;;;5414905;26;20644;-83
2024/04/11 00:53:56;;;;;;;10.35;2.63;;;13.50;70.70;;;;;;5434629;26;20006;-85
2024/04/11 00:56:23;;;;;;;8.90;2.50;;;13.50;70.80;;;;;;5431904;26;20015;-84
2024/04/11 00:58:48;;;;;;;10.15;2.58;;;13.40;71.30;;;;;;5431784;26;20462;-85
2024/04/11 01:01:14;;;;;;;10.13;2.92;;;13.40;71.30;;;;;;5430977;26;20002;-84
2024/04/11 01:03:40;;;;;;;9.60;3.00;;;13.40;71.70;;;;;;5409771;26;20001;-84
2024/04/11 01:06:06;;;;;;;9.25;2.85;;;13.40;71.90;;;;;;5430718;26;19998;-84
2024/04/11 01:08:32;;;;;;;10.32;2.78;;;13.50;72.00;;;;;;5426681;26;19999;-83
2024/04/11 01:10:57;;;;;;;11.77;2.97;;;13.40;72.00;;;;;;5385522;26;20021;-83
2024/04/11 01:13:23;;;;;;;11.32;3.10;;;13.40;72.30;;;;;;5431972;26;20010;-82
2024/04/11 01:15:49;;;;;;;9.73;2.70;;;13.40;72.70;;;;;;5429973;26;20012;-83
2024/04/11 01:18:15;;;;;;;10.13;2.33;;;13.30;72.80;;;;;;5412076;26;19995;-86
2024/04/11 01:20:43;;;;;;;8.85;2.90;;;13.30;73.10;;;;;;5444047;26;20013;-82
2024/04/11 01:23:08;;;;;;;11.38;3.22;;;13.30;73.50;;;;;;5429761;26;20027;-82
2024/04/11 01:25:34;;;;;;;9.98;3.22;;;13.20;73.70;;;;;;5438558;26;20475;-82
2024/04/11 01:28:00;;;;;;;8.93;2.30;;;13.20;73.50;;;;;;5403601;26;20018;-83
2024/04/11 01:30:27;;;;;;;9.75;2.67;;;13.20;73.80;;;;;;5432333;26;20009;-84
2024/04/11 01:33:00;;;;;;;10.40;2.47;;;13.20;74.00;;;;;;5402820;26;19996;-85
2024/04/11 01:35:31;;;;;;;8.98;2.80;;;13.10;74.10;;;;;;5388855;26;20003;-82
2024/04/11 01:38:00;;;;;;;10.90;2.80;;;13.20;74.50;;;;;;5404796;26;19999;-84
2024/04/11 01:40:29;;;;;;;8.80;2.65;;;13.20;74.60;;;;;;5398917;26;19999;-83
2024/04/11 01:42:56;;;;;;;9.15;2.97;;;13.20;75.00;;;;;;5429772;26;20294;-83
2024/04/11 01:45:21;;;;;;;11.85;2.45;;;13.20;75.20;;;;;;5427915;26;20005;-83
2024/04/11 01:47:47;;;;;;;7.57;2.83;;;13.20;75.80;;;;;;5437685;26;20466;-84
2024/04/11 01:50:13;;;;;;;9.70;2.53;;;13.20;76.10;;;;;;5435921;26;19999;-84
2024/04/11 01:52:38;;;;;;;13.13;3.05;;;13.30;76.30;;;;;;5405945;26;20409;-84
2024/04/11 01:55:04;;;;;;;10.93;2.55;;;13.30;76.40;;;;;;5429203;26;20434;-83
2024/04/11 01:57:30;;;;;;;9.13;2.15;;;13.30;76.50;;;;;;5435219;26;20010;-83
2024/04/11 01:59:56;;;;;;;10.73;2.55;;;13.30;76.70;;;;;;5434522;26;20057;-84
2024/04/11 02:02:22;;;;;;;8.80;2.35;;;13.30;76.80;;;;;;5425652;26;20007;-82
2024/04/11 02:04:48;;;;;;;10.43;2.45;;;13.40;77.00;;;;;;5428443;26;20071;-82
2024/04/11 02:07:14;;;;;;;10.57;3.08;;;13.30;77.10;;;;;;5426241;26;20101;-82
2024/04/11 02:09:40;;;;;;;11.77;2.47;;;13.40;77.20;;;;;;5437722;26;20016;-83
2024/04/11 02:12:06;;;;;;;8.68;2.25;;;13.40;77.30;;;;;;5414882;26;20007;-83
2024/04/11 02:14:32;;;;;;;10.63;2.60;;;13.30;77.50;;;;;;5438941;26;19995;-82
2024/04/11 02:16:59;;;;;;;9.88;2.97;;;13.40;77.70;;;;;;5438486;26;20022;-83
2024/04/11 02:19:26;;;;;;;9.27;2.67;;;13.40;77.70;;;;;;5431662;26;19991;-83
2024/04/11 02:21:52;;;;;;;9.43;2.40;;;13.40;77.90;;;;;;5418313;26;20006;-83
2024/04/11 02:24:18;;;;;;;8.65;2.63;;;13.40;78.10;;;;;;5408624;26;20002;-82
2024/04/11 02:26:48;;;;;;;11.05;2.58;;;13.40;78.20;;;;;;5434949;26;20487;-83
2024/04/11 02:29:17;;;;;;;8.25;2.90;;;13.40;78.50;;;;;;5431982;26;20504;-83
2024/04/11 02:31:43;;;;;;;10.05;2.90;;;13.40;78.60;;;;;;5434670;26;20011;-82
2024/04/11 02:34:09;;;;;;;8.88;2.67;;;13.40;78.80;;;;;;5430247;26;20043;-83
2024/04/11 02:36:35;;;;;;;14.35;2.45;;;13.50;78.80;;;;;;5405343;26;20006;-82
2024/04/11 02:39:07;;;;;;;9.90;2.67;;;13.50;79.00;;;;;;5433011;26;20003;-83
2024/04/11 02:41:34;;;;;;;10.00;2.40;;;13.40;79.20;;;;;;5388322;26;20331;-84
2024/04/11 02:44:00;;;;;;;11.18;2.10;;;13.40;79.50;;;;;;5435171;26;20013;-84
2024/04/11 02:46:26;;;;;;;9.23;2.97;;;13.50;79.60;;;;;;5420908;26;20004;-83
2024/04/11 02:48:53;;;;;;;10.27;2.55;;;13.40;79.80;;;;;;5413661;26;20010;-84
2024/04/11 02:51:19;;;;;;;9.57;2.22;;;13.50;80.00;;;;;;5418605;26;20008;-83
2024/04/11 02:53:45;;;;;;;10.50;2.67;;;13.40;80.20;;;;;;5403602;26;19991;-83
2024/04/11 02:56:11;;;;;;;11.40;2.80;;;13.40;80.30;;;;;;5437295;26;20062;-84
2024/04/11 02:58:37;;;;;;;10.18;2.78;;;13.40;80.60;;;;;;5431996;26;20002;-83
2024/04/11 03:01:08;;;;;;;8.13;2.28;;;13.40;80.70;;;;;;5415916;26;20095;-84
2024/04/11 03:03:34;;;;;;;10.93;2.55;;;13.40;81.00;;;;;;5403286;26;20022;-82
2024/04/11 03:06:12;;;;;;;7.63;2.17;;;13.40;81.10;;;;;;5423929;26;20003;-84
2024/04/11 03:08:41;;;;;;;9.65;2.85;;;13.40;81.20;;;;;;5428032;26;20022;-83
2024/04/11 03:11:11;;;;;;;10.57;2.90;;;13.50;81.20;;;;;;5452604;26;20108;-83
2024/04/11 03:13:38;;;;;;;10.00;2.67;;;13.50;81.30;;;;;;5446177;26;20013;-83
2024/04/11 03:16:04;;;;;;;9.75;2.63;;;13.40;81.30;;;;;;5444683;26;19999;-83
2024/04/11 03:18:31;;;;;;;10.35;2.67;;;13.40;81.60;;;;;;5433780;26;19999;-83
2024/04/11 03:20:58;;;;;;;6.90;2.33;;;13.40;81.90;;;;;;5434883;26;20010;-82
2024/04/11 03:23:26;;;;;;;8.63;2.60;;;13.40;81.90;;;;;;5442265;26;20783;-84
2024/04/11 03:25:52;;;;;;;9.88;2.40;;;13.40;82.10;;;;;;5440498;26;20184;-82
2024/04/11 03:28:21;;;;;;;9.90;2.80;;;13.40;82.20;;;;;;5435951;26;20039;-84
2024/04/11 03:30:53;;;;;;;9.23;2.60;;;13.40;82.50;;;;;;5434304;26;20264;-82
2024/04/11 03:33:18;;;;;;;7.53;2.60;;;13.40;82.80;;;;;;5398402;26;20672;-83
2024/04/11 03:36:00;;;;;;;11.27;2.92;;;13.30;83.00;;;;;;5403597;26;20025;-82
2024/04/11 03:38:28;;;;;;;10.80;2.67;;;13.30;83.10;;;;;;5434423;26;19998;-83
2024/04/11 03:40:58;;;;;;;8.48;2.63;;;13.30;83.20;;;;;;5433441;26;20010;-83
2024/04/11 03:43:27;;;;;;;11.88;3.10;;;13.40;83.30;;;;;;5424281;26;20012;-83
2024/04/11 03:46:18;;;;;;;11.65;3.33;;;13.30;83.40;;;;;;5433549;26;19995;-82
2024/04/11 03:48:45;;;;;;;10.82;2.40;;;13.30;83.60;;;;;;5419522;26;19999;-82
2024/04/11 03:51:15;;;;;;;12.35;3.03;;;13.30;83.70;;;;;;5398915;26;20007;-83
2024/04/11 03:53:49;;;;;;;10.65;2.80;;;13.30;83.80;;;;;;5421873;26;19996;-82
2024/04/11 03:56:15;;;;;;;12.57;3.20;;;13.30;84.10;;;;;;5424230;26;20010;-81
2024/04/11 03:58:42;;;;;;;10.18;2.55;;;13.20;84.20;;;;;;5421861;26;20068;-82
2024/04/11 04:01:15;;;;;;;10.90;2.60;;;13.20;84.40;;;;;;5435362;26;20511;-83
2024/04/11 04:03:46;;;;;;;9.45;2.70;;;13.20;84.60;;;;;;5401399;26;19998;-84
2024/04/11 04:06:13;;;;;;;12.02;3.10;;;13.20;84.70;;;;;;5434720;26;20239;-83
2024/04/11 04:08:49;;;;;;;13.93;2.72;;;13.20;85.00;;;;;;5433103;26;20007;-83
2024/04/11 04:11:16;;;;;;;11.75;2.92;;;13.20;85.10;;;;;;5439835;26;20003;-83
2024/04/11 04:13:42;;;;;;;12.60;3.15;;;13.20;85.30;;;;;;5425506;26;19995;-83
2024/04/11 04:16:14;;;;;;;10.07;2.63;;;13.20;85.60;;;;;;5420613;26;20003;-83
2024/04/11 04:18:54;;;;;;;11.40;3.55;;;13.20;85.70;;;;;;5400079;26;20097;-83
2024/04/11 04:21:20;;;;;;;9.00;2.80;;;13.10;85.90;;;;;;5407296;26;20900;-84
2024/04/11 04:23:54;;;;;;;8.13;2.95;;;13.10;85.90;;;;;;5435872;26;20003;-83
2024/04/11 04:26:21;;;;;;;12.10;3.05;;;13.10;86.00;;;;;;5428540;26;20060;-82
2024/04/11 04:28:48;;;;;;;10.02;2.90;;;13.10;85.90;;;;;;5435846;26;20014;-83
2024/04/11 04:31:15;;;;;;;11.35;2.90;;;13.20;85.90;;;;;;5435047;26;20014;-81
2024/04/11 04:33:42;;;;;;;13.68;3.22;;;13.20;86.00;;;;;;5433618;26;20072;-83
2024/04/11 04:36:09;;;;;;;11.95;3.58;;;13.10;86.00;;;;;;5423719;26;20033;-81
2024/04/11 04:38:35;;;;;;;13.77;3.15;;;13.20;86.00;;;;;;5414300;26;20003;-81
2024/04/11 04:41:02;;;;;;;8.05;2.88;;;13.20;86.20;;;;;;5433334;26;19995;-82
2024/04/11 04:43:29;;;;;;;12.02;3.17;;;13.20;86.30;;;;;;5433638;26;20005;-82
2024/04/11 04:45:57;;;;;;;12.15;3.08;;;13.10;86.40;;;;;;5436813;26;19990;-81
2024/04/11 04:48:23;;;;;;;11.13;2.50;;;13.10;86.50;;;;;;5423931;26;20003;-81
2024/04/11 04:50:49;;;;;;;8.93;3.13;;;13.10;86.50;;;;;;5430716;26;20007;-83
2024/04/11 04:53:14;;;;;;;11.57;2.83;;;13.10;86.60;;;;;;5427649;26;20013;-82
2024/04/11 04:55:41;;;;;;;11.23;3.55;;;13.10;86.70;;;;;;5434358;26;20844;-82
2024/04/11 04:58:06;;;;;;;10.55;3.13;;;13.20;86.60;;;;;;5434338;26;20034;-81
2024/04/11 05:00:33;;;;;;;12.93;4.07;;;13.10;86.50;;;;;;5425414;26;20014;-81
2024/04/11 05:03:08;;;;;;;8.80;3.10;;;13.10;86.70;;;;;;5434411;26;20003;-81
2024/04/11 05:05:36;;;;;;;11.40;3.45;;;13.10;86.80;;;;;;5431330;26;20130;-82
2024/04/11 05:08:03;;;;;;;9.93;3.10;;;13.10;86.80;;;;;;5421907;26;20035;-82
2024/04/11 05:10:28;;;;;;;7.80;3.00;;;13.10;86.80;;;;;;5420703;26;20083;-82
2024/04/11 05:12:59;;;;;;;13.30;3.30;;;13.20;87.10;;;;;;5433428;26;20259;-84
2024/04/11 05:15:25;;;;;;;10.27;3.80;;;13.30;87.40;;;;;;5435632;26;20017;-82
2024/04/11 05:17:51;;;;;;;9.50;3.42;;;13.20;87.80;;;;;;5418240;26;19991;-81
2024/04/11 05:20:24;;;;;;;11.80;3.00;;;13.30;87.90;;;;;;5434788;26;20817;-82
2024/04/11 05:22:51;;;;;;;12.95;3.78;;;13.20;87.90;;;;;;5401294;26;20125;-84
2024/04/11 05:25:21;;;;;;;10.90;3.35;;;13.20;88.30;;;;;;5433015;26;20075;-81
2024/04/11 05:27:46;;;;;;;11.23;3.80;;;13.20;88.50;;;;;;5393968;26;19999;-84
2024/04/11 05:30:12;;;;;;;11.80;4.10;;;13.20;88.60;;;;;;5413738;26;20003;-84
2024/04/11 05:32:43;;;;;;;12.35;3.50;;;13.20;88.60;;;;;;5408615;26;19999;-82
2024/04/11 05:35:09;;;;;;;10.60;3.78;;;13.20;88.80;;;;;;5430751;26;20010;-81
2024/04/11 05:37:44;;;;;;;12.15;3.95;;;13.20;89.00;;;;;;5428518;26;20079;-83
2024/04/11 05:40:12;;;;;;;;;;;13.20;88.90;;;;;;5434492;26;19995;-82
2024/04/11 05:42:44;;;;;;;14.27;4.47;;;13.20;89.10;;;;;;5419545;26;19963;-84
2024/04/11 05:45:11;;;;;;;10.93;3.83;;;13.20;89.20;;;;;;5420893;26;20103;-81
2024/04/11 05:47:37;;;;;;;12.52;4.78;;;13.10;89.50;;;;;;5419034;26;20132;-81
2024/04/11 05:50:04;;;;;;;14.07;4.70;;;13.10;89.70;;;;;;5425031;26;20129;-81
2024/04/11 05:52:31;;;;;;;11.10;4.10;;;13.20;89.80;;;;;;5403566;26;20837;-80
2024/04/11 05:54:58;;;;;;;10.10;3.88;;;13.10;89.90;;;;;;5421704;26;20072;-82
2024/04/11 05:57:24;;;;;;;11.27;5.00;;;13.10;90.10;;;;;;5417487;26;19999;-82
2024/04/11 05:59:51;;;;;;;13.57;4.53;;;13.20;90.40;;;;;;5419023;26;19998;-82
2024/04/11 06:02:17;;;;;;;10.60;4.15;;;13.10;90.60;;;;;;5419222;26;20592;-82
2024/04/11 06:04:43;;;;;;;13.43;4.78;;;13.10;90.70;;;;;;5425138;26;20005;-82
2024/04/11 06:07:08;;;;;;;10.95;4.13;;;13.10;91.00;;;;;;5414476;26;20028;-80
2024/04/11 06:09:39;;;;;;;11.15;4.45;;;13.10;91.20;;;;;;5420771;26;20355;-83
2024/04/11 06:12:05;;;;;;;11.43;4.43;;;13.10;91.30;;;;;;5414946;26;20017;-84
2024/04/11 06:14:31;;;;;;;11.15;4.50;;;13.10;91.40;;;;;;5426124;26;19999;-83
2024/04/11 06:16:56;;;;;;;12.60;4.65;;;13.10;91.60;;;;;;5413789;26;20428;-85
2024/04/11 06:19:22;;;;;;;14.88;5.15;;;13.10;91.50;;;;;;5419461;26;20051;-84
2024/04/11 06:21:53;;;;;;;11.80;5.57;;;13.10;91.70;;;;;;5415126;26;20010;-84
2024/04/11 06:24:22;;;;;;;15.02;6.50;;;13.10;91.90;;;;;;5421909;26;19999;-84
2024/04/11 06:26:48;;;;;;;13.27;4.95;;;13.10;92.10;;;;;;5435436;26;19995;-83
2024/04/11 06:29:19;;;;;;;14.60;5.15;;;13.10;92.30;;;;;;5427544;26;20047;-84
2024/04/11 06:31:46;;;;;;;11.98;4.72;;;13.10;92.30;;;;;;5385784;26;19999;-83
2024/04/11 06:34:13;;;;;;;12.75;5.22;;;13.10;92.50;;;;;;5420131;26;20136;-84
2024/04/11 06:36:39;;;;;;;12.07;5.60;;;13.10;92.60;;;;;;5431454;26;20457;-84
2024/04/11 06:39:09;;;;;;;11.40;5.18;;;13.20;92.70;;;;;;5420158;26;20011;-85
2024/04/11 06:41:39;;;;;;;12.05;4.78;;;13.10;92.70;;;;;;5429723;26;20018;-85
2024/04/11 06:44:05;;;;;;;13.23;5.00;;;13.20;92.80;;;;;;5417080;26;20003;-84
2024/04/11 06:46:33;;;;;;;18.80;6.35;;;13.20;92.90;;;;;;5415634;26;20131;-85
2024/04/11 06:48:59;;;;;;;12.15;5.35;;;13.10;92.90;;;;;;5390961;26;20494;-85
2024/04/11 06:51:25;;;;;;;13.20;6.03;;;13.20;92.90;;;;;;5428802;26;19995;-83
2024/04/11 06:53:51;;;;;;;13.52;5.63;;;13.20;92.90;;;;;;5393502;26;21303;-84
2024/04/11 06:56:22;;;;;;;14.50;5.78;;;13.10;93.00;;;;;;5432128;26;20133;-85
2024/04/11 06:58:47;;;;;;;12.70;5.47;;;13.10;93.20;;;;;;5420625;26;20014;-87
2024/04/11 07:01:15;;;;;;;13.25;5.15;;;13.10;93.20;;;;;;5400482;26;20028;-85
2024/04/11 07:03:49;;;;;;;15.10;5.65;;;13.20;93.20;;;;;;5387106;26;20003;-83
2024/04/11 07:08:52;;;;;;;15.77;5.68;;;13.20;93.30;;;;;;5449356;26;20002;-83
2024/04/11 07:11:32;;;;;;;12.13;5.75;;;13.20;93.30;;;;;;5391552;26;20014;-84
2024/04/11 07:13:59;;;;;;;17.80;5.97;;;13.30;93.40;;;;;;5434871;26;20014;-84
2024/04/11 07:16:40;;;;;;;18.02;6.97;;;13.30;93.40;;;;;;5399060;26;20014;-83
2024/04/11 07:19:08;;;;;;;13.23;6.13;;;13.30;93.50;;;;;;5431348;26;20083;-82
2024/04/11 07:21:34;;;;;;;14.82;6.05;;;13.40;93.40;;;;;;5430007;26;20003;-83
2024/04/11 07:24:03;;;;;;;12.07;5.65;;;13.40;93.20;;;;;;5439197;26;20112;-83
2024/04/11 07:26:31;;;;;;;12.43;5.90;;;13.40;93.40;;;;;;5426731;26;19994;-79
2024/04/11 07:29:06;;;;;;;12.07;5.82;;;13.50;93.20;;;;;;5436248;26;20102;-79
2024/04/11 07:31:36;;;;;;;14.80;6.20;;;13.40;93.20;;;;;;5432578;26;20009;-78
2024/04/11 07:34:05;;;;;;;16.00;6.35;;;13.40;93.40;;;;;;5425226;26;19994;-81
2024/04/11 07:36:32;;;;;;;16.33;6.53;;;13.30;93.40;;;;;;5434122;26;20038;-79
2024/04/11 07:38:58;;;;;;;16.98;7.18;;;13.30;93.50;;;;;;5433595;26;20007;-79
2024/04/11 07:41:28;;;;;;;9.80;5.82;;;13.40;93.50;;;;;;5429765;26;20676;-79
2024/04/11 07:44:00;;;;;;;13.63;5.82;;;13.30;93.60;;;;;;5433070;26;19999;-81
2024/04/11 07:46:29;;;;;;;14.15;6.45;;;13.40;93.60;;;;;;5422338;26;19999;-79
2024/04/11 07:48:56;;;;;;;12.70;6.32;;;13.50;93.60;;;;;;5424172;26;20003;-79
2024/04/11 07:51:23;;;;;;;12.38;6.22;;;13.50;93.70;;;;;;5434940;26;19999;-78
2024/04/11 07:53:49;;;;;;;13.02;6.18;;;13.60;93.70;;;;;;5431755;26;20075;-78
2024/04/11 07:56:20;;;;;;;12.93;6.13;;;13.60;93.70;;;;;;5432026;26;20018;-81
2024/04/11 07:58:51;;;;;;;14.32;6.88;;;13.70;93.40;;;;;;5432029;26;19998;-80
2024/04/11 08:01:17;;;;;;;13.70;6.45;;;13.80;93.30;;;;;;5432505;26;20430;-80
2024/04/11 08:03:43;;;;;;;11.38;6.10;;;13.90;93.40;;;;;;5437097;26;19998;-80
2024/04/11 08:06:10;;;;;;;12.80;6.68;;;14.00;93.20;;;;;;5433032;26;20430;-78
2024/04/11 08:08:38;;;;;;;15.63;7.13;;;14.10;93.20;;;;;;5433968;26;20010;-79
2024/04/11 08:11:06;;;;;;;15.75;6.75;;;14.20;92.70;;;;;;5431047;26;19999;-80
2024/04/11 08:13:33;;;;;;;14.38;6.75;;;14.30;92.60;;;;;;5433194;26;20400;-79
2024/04/11 08:16:01;;;;;;;12.02;6.72;;;14.40;92.20;;;;;;5426254;26;19999;-80
2024/04/11 08:18:27;;;;;;;13.70;6.53;;;14.40;91.90;;;;;;5430730;26;20006;-79
2024/04/11 08:20:56;;;;;;;13.40;7.43;;;14.30;92.00;;;;;;5416093;26;19995;-79
2024/04/11 08:23:24;;;;;;;14.13;7.35;;;14.40;92.00;;;;;;5422209;26;20076;-80
2024/04/11 08:25:53;;;;;;;17.08;7.55;;;14.60;92.20;;;;;;5424020;26;20485;-80
2024/04/11 08:28:20;;;;;;;13.15;6.60;;;15.00;92.40;;;;;;5429614;26;20014;-80
2024/04/11 08:30:46;;;;;;;10.88;6.55;;;15.30;91.50;;;;;;5389112;26;19995;-80
2024/04/11 08:33:11;;;;;;;15.23;6.28;;;15.70;91.10;;;;;;5428314;26;20060;-79
2024/04/11 08:35:37;;;;;;;10.52;5.57;;;16.00;89.80;;;;;;5402219;26;20127;-80
2024/04/11 08:38:06;;;;;;;12.35;6.70;;;16.10;88.90;;;;;;5431665;26;20022;-79
2024/04/11 08:40:33;;;;;;;12.38;5.68;;;16.30;88.00;;;;;;5417710;26;19996;-80
2024/04/11 08:43:01;;;;;;;10.98;5.30;;;16.60;88.00;;;;;;5426440;26;20268;-80
2024/04/11 08:45:30;;;;;;;10.45;5.35;;;16.50;86.70;;;;;;5439682;26;20058;-80
2024/04/11 08:47:56;;;;;;;11.48;5.15;;;16.50;86.20;;;;;;5426149;26;20011;-79
2024/04/11 08:50:21;;;;;;;9.23;4.63;;;16.30;86.40;;;;;;5431293;26;20003;-80
2024/04/11 08:52:48;;;;;;;14.20;5.22;;;16.30;86.90;;;;;;5425586;26;20078;-79
2024/04/11 08:55:14;;;;;;;10.38;5.30;;;16.20;86.80;;;;;;5431605;26;19995;-79
2024/04/11 08:57:41;;;;;;;11.05;4.72;;;16.00;86.80;;;;;;5404082;26;19999;-80
2024/04/11 09:00:12;;;;;;;9.68;5.03;;;15.90;87.10;;;;;;5429870;26;20075;-80
2024/04/11 09:02:41;;;;;;;9.90;5.13;;;15.80;87.30;;;;;;5405981;26;20449;-81
2024/04/11 09:05:16;;;;;;;9.15;4.70;;;15.70;87.50;;;;;;5430266;26;20064;-80
2024/04/11 09:07:44;;;;;;;9.40;4.57;;;15.70;88.00;;;;;;5428441;26;20014;-80
2024/04/11 09:10:12;;;;;;;7.43;4.28;;;15.90;88.20;;;;;;5428188;26;20669;-80
2024/04/11 09:12:43;;;;;;;9.35;4.78;;;16.00;88.00;;;;;;5429841;26;20551;-80
2024/04/11 09:15:09;;;;;;;8.82;5.40;;;15.90;87.70;;;;;;5434825;26;20003;-80
2024/04/11 09:17:39;;;;;;;9.70;4.70;;;15.80;87.40;;;;;;5390934;26;19999;-79
2024/04/11 09:20:11;;;;;;;9.15;5.40;;;15.70;87.60;;;;;;5428791;26;20026;-79
2024/04/11 09:22:38;;;;;;;8.60;4.90;;;15.70;87.80;;;;;;5423478;26;20251;-79
2024/04/11 09:25:07;;;;;;;8.50;4.78;;;15.60;88.10;;;;;;5431025;26;20001;-80
2024/04/11 09:27:37;;;;;;;8.98;5.30;;;15.50;87.90;;;;;;5434620;26;20005;-79
2024/04/11 09:30:06;;;;;;;9.57;5.03;;;15.40;88.30;;;;;;5430652;26;20487;-78
2024/04/11 09:32:36;;;;;;;10.23;5.53;;;15.50;88.50;;;;;;5432792;26;20003;-78
2024/04/11 09:35:05;;;;;;;8.13;5.50;;;15.70;88.20;;;;;;5431830;26;20006;-78
2024/04/11 09:37:35;;;;;;;7.72;5.65;;;15.90;87.70;;;;;;5408488;26;20017;-78
2024/04/11 09:40:11;;;;;;;10.70;6.88;;;16.20;87.80;;;;;;5414605;26;19999;-79
2024/04/11 09:42:40;;;;;;;7.93;4.35;;;16.50;86.80;;;;;;5428253;26;20022;-80
2024/04/11 09:45:18;;;;;;;10.60;5.30;;;16.60;85.50;;;;;;5431709;26;20013;-81
2024/04/11 09:47:47;;;;;;;7.45;4.95;;;16.80;85.40;;;;;;5428508;26;20017;-79
2024/04/11 09:50:16;;;;;;;7.40;5.38;;;17.00;85.40;;;;;;5411435;26;20499;-80
2024/04/11 09:52:45;;;;;;;9.02;5.30;;;17.10;84.30;;;;;;5429723;26;20003;-79
2024/04/11 09:55:15;;;;;;;10.55;5.18;;;17.10;84.10;;;;;;5415269;26;20126;-78
2024/04/11 09:57:44;;;;;;;7.35;4.10;;;17.10;84.00;;;;;;5425561;26;20096;-80
2024/04/11 10:00:18;;;;;;;6.85;4.00;;;17.10;83.80;;;;;;5424392;26;20023;-78
2024/04/11 10:02:45;;;;;;;7.32;4.55;;;17.00;83.80;;;;;;5426295;26;19999;-79
2024/04/11 10:05:16;;;;;;;7.45;4.25;;;17.00;84.30;;;;;;5419861;26;19999;-78
2024/04/11 10:07:41;;;;;;;7.97;3.95;;;16.90;84.00;;;;;;5400381;26;20011;-79
2024/04/11 10:10:25;;;;;;;8.15;4.85;;;16.80;84.50;;;;;;5428560;26;20009;-78
2024/04/11 10:12:52;;;;;;;8.63;5.00;;;16.80;84.40;;;;;;5435218;26;20002;-78
2024/04/11 10:15:19;;;;;;;7.25;5.15;;;16.70;84.30;;;;;;5428327;26;20006;-79
2024/04/11 10:18:05;;;;;;;9.77;5.60;;;16.60;84.50;;;;;;5428652;26;20379;-78
2024/04/11 10:21:01;;;;;;;8.95;6.53;;;16.40;84.40;;;;;;5414608;26;19999;-78
2024/04/11 10:23:29;;;;;;;9.45;6.45;;;16.50;84.80;;;;;;5431862;26;20017;-78
2024/04/11 10:25:56;;;;;;;9.10;6.90;;;16.60;84.40;;;;;;5428699;26;20628;-80
2024/04/11 10:28:37;;;;;;;9.40;6.45;;;16.50;84.70;;;;;;5441596;26;20080;-80
2024/04/11 10:31:12;;;;;;;10.75;6.75;;;16.60;85.10;;;;;;5434356;26;20033;-79
2024/04/11 10:33:47;;;;;;;9.18;6.63;;;16.40;84.80;;;;;;5427748;26;20031;-80
2024/04/11 10:36:13;;;;;;;9.27;6.18;;;16.30;84.80;;;;;;5436562;26;20661;-79
2024/04/11 10:38:41;;;;;;;7.75;5.55;;;16.30;85.20;;;;;;5435026;26;20018;-81
2024/04/11 10:41:08;;;;;;;9.55;5.57;;;16.40;85.20;;;;;;5423201;26;20461;-81
2024/04/11 10:43:36;;;;;;;8.15;5.68;;;16.50;85.10;;;;;;5422960;26;20023;-81
2024/04/11 10:46:05;;;;;;;8.50;5.10;;;16.40;85.30;;;;;;5427450;26;19999;-80
2024/04/11 10:48:31;;;;;;;7.43;4.90;;;16.40;85.40;;;;;;5417908;26;20003;-81
2024/04/11 10:51:00;;;;;;;10.38;5.45;;;16.40;85.20;;;;;;5422916;26;20785;-80
2024/04/11 10:53:25;;;;;;;8.15;5.72;;;16.20;85.60;;;;;;5383206;26;20094;-80
2024/04/11 10:55:55;;;;;;;8.50;6.50;;;16.20;85.70;;;;;;5422960;26;19999;-80
2024/04/11 10:58:28;;;;;;;8.35;6.47;;;16.10;85.60;;;;;;5417731;26;20009;-80
2024/04/11 11:03:46;;;;;;;8.45;6.53;;;16.20;86.00;;;;;;5420740;26;20061;-80
2024/04/11 11:06:34;;;;;;;8.68;6.88;;;16.20;85.90;;;;;;5425935;26;20010;-80
2024/04/11 11:09:12;;;;;;;9.30;7.57;;;16.20;86.00;;;;;;5415164;26;20003;-79
2024/04/11 11:11:40;;;;;;;10.02;8.00;;;16.20;85.90;;;;;;5419903;26;20004;-79
2024/04/11 11:14:08;;;;;;;9.20;7.13;;;16.20;85.70;;;;;;5399288;26;20359;-80
2024/04/11 11:16:37;;;;;;;9.40;7.95;;;16.10;86.30;;;;;;5416287;26;20458;-80
2024/04/11 11:19:04;;;;;;;10.05;8.45;;;16.20;86.10;;;;;;5421704;26;20018;-80
2024/04/11 11:21:32;;;;;;;10.27;8.10;;;16.30;86.20;;;;;;5417556;26;19995;-79
2024/04/11 11:24:06;;;;;;;13.18;8.70;;;16.30;86.10;;;;;;5426634;26;20420;-79
2024/04/11 11:26:35;;;;;;;9.38;6.88;;;16.30;86.00;;;;;;5418506;26;19991;-80
2024/04/11 11:29:11;;;;;;;10.13;6.65;;;16.30;85.90;;;;;;5420194;26;20009;-79
2024/04/11 11:31:40;;;;;;;8.88;5.80;;;16.20;85.90;;;;;;5425402;26;20010;-79
2024/04/11 11:34:09;;;;;;;9.45;6.05;;;16.10;85.90;;;;;;5424865;26;19999;-79
2024/04/11 11:36:44;;;;;;;8.63;5.93;;;16.10;86.30;;;;;;5441899;26;20041;-79
2024/04/11 11:39:19;;;;;;;13.27;7.47;;;16.10;86.30;;;;;;5432204;26;19995;-80
2024/04/11 11:41:47;;;;;;;10.45;8.23;;;16.10;86.30;;;;;;5432554;26;20006;-79
2024/04/11 11:44:17;;;;;;;15.90;14.40;;;16.10;86.60;;;;;;5431105;26;19999;-80
2024/04/11 11:47:00;;;;;;;14.50;13.00;;;16.10;86.00;;;;;;5444298;26;20007;-80
2024/04/11 11:49:26;;;;;;;15.23;11.73;;;16.10;86.30;;;;;;5433184;26;20557;-79
2024/04/11 11:51:54;;;;;;;11.38;9.45;;;16.10;86.60;;;;;;5437476;26;19998;-79
2024/04/11 11:54:24;;;;;;;10.07;8.23;;;16.10;86.30;;;;;;5430765;26;20325;-79
2024/04/11 11:57:01;;;;;;;8.35;6.03;;;16.10;86.50;;;;;;5435498;26;20009;-80
2024/04/11 11:59:32;;;;;;;10.00;5.60;;;16.30;86.30;;;;;;5429240;26;20289;-81
2024/04/11 12:01:58;;;;;;;8.85;5.30;;;16.60;85.60;;;;;;5442635;26;20070;-80
2024/04/11 12:04:25;;;;;;;7.63;4.72;;;16.80;85.30;;;;;;5415421;26;20036;-80
2024/04/11 12:06:55;;;;;;;8.15;4.88;;;17.10;83.80;;;;;;5424104;26;19994;-79
2024/04/11 12:09:31;;;;;;;7.72;4.40;;;17.50;83.50;;;;;;5439735;26;19994;-80
2024/04/11 12:12:43;;;;;;;8.85;4.45;;;17.60;82.30;;;;;;5436183;26;20115;-80
2024/04/11 12:15:00;;;;;;;7.07;3.42;;;17.60;81.70;;;;;;5406260;26;20043;-80
2024/04/11 12:17:27;;;;;;;7.40;3.60;;;17.60;81.70;;;;;;5434108;26;20075;-81
2024/04/11 12:20:05;;;;;;;6.18;3.65;;;17.80;81.70;;;;;;5433376;26;20079;-80
2024/04/11 12:22:35;;;;;;;8.00;4.00;;;17.90;81.40;;;;;;5407891;26;20352;-80
2024/04/11 12:25:01;;;;;;;8.23;4.60;;;17.90;80.60;;;;;;5436297;26;20017;-80
2024/04/11 12:27:30;;;;;;;7.57;4.32;;;17.80;81.00;;;;;;5429098;26;20066;-80
2024/04/11 12:30:01;;;;;;;8.77;5.13;;;17.80;81.00;;;;;;5429895;26;20014;-80
2024/04/11 12:32:27;;;;;;;7.78;5.15;;;17.70;81.00;;;;;;5396578;26;20151;-80
2024/04/11 12:34:56;;;;;;;8.73;5.68;;;17.70;81.20;;;;;;5424961;26;20035;-80
2024/04/11 12:37:26;;;;;;;8.10;5.82;;;17.60;80.60;;;;;;5425224;26;20010;-80
2024/04/11 12:39:56;;;;;;;10.02;6.05;;;17.60;80.80;;;;;;5425713;26;20147;-80
2024/04/11 12:42:29;;;;;;;9.65;6.00;;;17.50;81.40;;;;;;5424339;26;20010;-80
2024/04/11 12:44:58;;;;;;;7.85;5.55;;;17.50;81.70;;;;;;5429182;26;19998;-79
2024/04/11 12:47:39;;;;;;;9.65;5.47;;;17.50;81.40;;;;;;5397033;26;20003;-79
2024/04/11 12:50:15;;;;;;;8.77;6.00;;;17.40;82.20;;;;;;5417965;26;20010;-80
2024/04/11 12:52:44;;;;;;;9.00;6.88;;;17.30;81.60;;;;;;5430114;26;20320;-79